Etusivu
METAR-TAF:

METAR-TAF

Lentoasemat :

Emmen, Sveitsi

Leveyspiiri: 47-05-32N, Pituuspiiri: 8-18-16E, korkeus merenpinnasta: 426 m

Tämänhetkinen sää

Tämä raportti tehtiin 34 minuuttia sitten, kello 15.20 UTC
Tuuli 3 kn eri suunnista
Lämpötila 15°C
Kosteus 72%
Ilmanpaine 1027 hPa
Näkyvyys: 7000 m

METAR: LSME 201520Z AUTO VRB03KT 7000NDV NCD 15/10 Q1027 RMK

Aika: 17:54 (15:54 UTC)


TAF: puuttuu

Säähavainnot ja -ennusteet yli 4000 lentoasemalta (METAR- ja TAF-raportit).

Käytössä olevat sääasemat on merkitty karttaan keltaisilla ja punaisilla pisteillä.

Aseta hiiri pisteen päälle nähdäksesi sääaseman nimen.

Klikkaa sitten nähdäksesi säähavainnot ja -ennusteet.

Kartan vaihtaminen: klikkaa mustalla rastilla varustettuja vihreitä pisteitä, niin voit zoomata sisään; viivalla varustettua vihreää pistettä, niin voit zoomata ulos tai vihreitä nuolia, niin pääset viereisille kartoille.


METAR-TAF: